Time;durP1;ratioP1;P1;durP2;ratioP2;P2;SDS_P1;SDS_P2;PMS_P1;PMS_P2;Temp;Humidity;BMP_temperature;BMP_pressure;BME280_temperature;BME280_humidity;BME280_pressure;Samples;Min_cycle;Max_cycle;Signal;HPM_P1;HPM_P2
2022/04/02 00:01:58;;;;;;;0.80;0.80;;;9.10;99.90;;;;;;5047600;28;20075;-72
2022/04/02 00:04:24;;;;;;;1.30;1.00;;;9.10;99.90;;;;;;5053306;28;20341;-72
2022/04/02 00:06:50;;;;;;;1.88;1.17;;;9.10;99.90;;;;;;5068433;28;20476;-72
2022/04/02 00:09:16;;;;;;;2.83;1.10;;;9.10;99.90;;;;;;5068521;28;20060;-72
2022/04/02 00:11:42;;;;;;;2.45;1.23;;;9.10;99.90;;;;;;5068415;28;20106;-72
2022/04/02 00:14:07;;;;;;;1.20;1.10;;;9.10;99.90;;;;;;5053180;28;20476;-73
2022/04/02 00:16:33;;;;;;;2.20;1.20;;;9.10;99.90;;;;;;5053043;28;20083;-73
2022/04/02 00:18:59;;;;;;;4.20;1.20;;;9.10;99.90;;;;;;5053041;28;20115;-73
2022/04/02 00:21:25;;;;;;;2.15;1.20;;;9.00;99.90;;;;;;5052626;28;20100;-72
2022/04/02 00:23:51;;;;;;;2.85;1.33;;;9.00;99.90;;;;;;5053033;28;20040;-73
2022/04/02 00:26:21;;;;;;;1.52;1.10;;;9.10;99.90;;;;;;5052014;28;20028;-72
2022/04/02 00:28:49;;;;;;;1.33;1.20;;;9.00;99.90;;;;;;5068358;28;20025;-73
2022/04/02 00:31:16;;;;;;;2.38;1.05;;;9.00;99.90;;;;;;5062603;28;20033;-72
2022/04/02 00:33:44;;;;;;;2.88;1.10;;;9.10;99.90;;;;;;5052610;28;20096;-73
2022/04/02 00:36:11;;;;;;;1.00;1.00;;;9.00;99.90;;;;;;5052462;28;20025;-72
2022/04/02 00:38:39;;;;;;;4.13;1.40;;;9.00;99.90;;;;;;5052551;28;20025;-73
2022/04/02 00:41:05;;;;;;;5.18;1.38;;;9.00;99.90;;;;;;5052526;28;20055;-72
2022/04/02 00:43:36;;;;;;;5.07;1.58;;;9.00;99.90;;;;;;5052049;28;20017;-73
2022/04/02 00:46:07;;;;;;;2.05;1.08;;;9.00;99.90;;;;;;5034860;28;20033;-73
2022/04/02 00:48:34;;;;;;;1.08;0.93;;;9.00;99.90;;;;;;5052326;28;20053;-72
2022/04/02 00:51:01;;;;;;;3.15;1.70;;;9.00;99.90;;;;;;5052401;28;20017;-73
2022/04/02 00:53:33;;;;;;;3.60;1.48;;;8.90;99.90;;;;;;5052504;28;20090;-72
2022/04/02 00:56:02;;;;;;;1.90;1.40;;;9.00;99.90;;;;;;5052398;28;20020;-73
2022/04/02 00:58:28;;;;;;;1.85;1.40;;;8.90;99.90;;;;;;5052234;28;20507;-73
2022/04/02 01:00:54;;;;;;;2.25;1.20;;;9.00;99.90;;;;;;5034209;28;20024;-73
2022/04/02 01:03:19;;;;;;;1.25;1.15;;;9.00;99.90;;;;;;5052397;28;20029;-73
2022/04/02 01:05:45;;;;;;;2.50;1.10;;;9.00;99.90;;;;;;5034577;28;20028;-72
2022/04/02 01:08:11;;;;;;;2.17;1.30;;;9.00;99.90;;;;;;5052308;28;20029;-73
2022/04/02 01:13:59;;;;;;;2.35;1.55;;;9.10;99.90;;;;;;5032209;28;20029;-72
2022/04/02 01:16:25;;;;;;;1.25;1.15;;;9.00;99.90;;;;;;5032524;28;20017;-73
2022/04/02 01:18:51;;;;;;;6.65;1.90;;;9.10;99.90;;;;;;5031116;28;20025;-73
2022/04/02 01:21:17;;;;;;;5.88;2.00;;;9.00;99.90;;;;;;5032231;28;20430;-73
2022/04/02 01:23:42;;;;;;;4.40;1.63;;;9.00;99.90;;;;;;5014532;28;20037;-72
2022/04/02 01:26:08;;;;;;;3.65;1.02;;;9.10;99.90;;;;;;5030784;28;20083;-73
2022/04/02 01:28:34;;;;;;;1.73;1.35;;;9.10;99.90;;;;;;5032186;28;20040;-72
2022/04/02 01:31:05;;;;;;;4.22;1.23;;;9.10;99.90;;;;;;5038443;28;20033;-73
2022/04/02 01:33:31;;;;;;;2.03;1.20;;;9.10;99.90;;;;;;5052097;28;20438;-72
2022/04/02 01:35:58;;;;;;;3.53;1.20;;;9.10;99.90;;;;;;5052215;28;20480;-72
2022/04/02 01:38:24;;;;;;;2.63;1.45;;;9.10;99.90;;;;;;5070336;28;20040;-73
2022/04/02 01:40:50;;;;;;;3.67;1.92;;;9.10;99.90;;;;;;5037493;28;20032;-73
2022/04/02 01:43:16;;;;;;;3.88;1.27;;;9.00;99.90;;;;;;5055929;28;20025;-73
2022/04/02 01:45:41;;;;;;;7.18;1.10;;;9.00;99.90;;;;;;5055707;28;20044;-73
2022/04/02 01:48:07;;;;;;;5.18;2.35;;;8.90;99.90;;;;;;5055703;28;20044;-72
2022/04/02 01:50:33;;;;;;;3.47;1.17;;;9.00;99.90;;;;;;5055703;28;20032;-73
2022/04/02 01:52:58;;;;;;;2.70;1.10;;;9.00;99.90;;;;;;5055745;28;20040;-73
2022/04/02 01:55:24;;;;;;;3.38;1.40;;;9.00;99.90;;;;;;5070996;28;20115;-73
2022/04/02 01:57:50;;;;;;;4.70;1.20;;;9.00;99.90;;;;;;5055397;28;20033;-73
2022/04/02 02:00:16;;;;;;;2.20;1.40;;;9.00;99.90;;;;;;5070823;28;20036;-72
2022/04/02 02:02:42;;;;;;;5.45;1.45;;;8.90;99.90;;;;;;5055494;28;20396;-73
2022/04/02 02:05:08;;;;;;;1.67;1.58;;;8.90;99.90;;;;;;5055689;28;20025;-73
2022/04/02 02:07:34;;;;;;;3.72;1.40;;;8.90;99.90;;;;;;5055459;28;20025;-73
2022/04/02 02:10:00;;;;;;;3.45;1.42;;;9.00;99.90;;;;;;5055089;28;20063;-73
2022/04/02 02:12:26;;;;;;;4.15;1.60;;;8.90;99.90;;;;;;5055411;28;20372;-73
2022/04/02 02:14:51;;;;;;;3.63;1.33;;;8.80;99.90;;;;;;5054019;28;20392;-73
2022/04/02 02:17:19;;;;;;;6.15;1.30;;;8.90;99.90;;;;;;5069346;28;20025;-73
2022/04/02 02:19:45;;;;;;;3.65;0.90;;;8.90;99.90;;;;;;5069200;28;20024;-73
2022/04/02 02:22:11;;;;;;;3.53;1.20;;;8.90;99.90;;;;;;5053932;28;20021;-73
2022/04/02 02:24:37;;;;;;;4.50;1.17;;;8.80;99.90;;;;;;5053617;28;20187;-73
2022/04/02 02:27:03;;;;;;;2.45;1.17;;;8.70;99.90;;;;;;5035807;28;20473;-73
2022/04/02 02:29:29;;;;;;;5.93;1.30;;;8.60;99.90;;;;;;5036459;28;20380;-73
2022/04/02 02:31:55;;;;;;;2.42;1.05;;;8.60;99.90;;;;;;5054895;28;20100;-73
2022/04/02 02:37:05;;;;;;;7.03;1.90;;;8.60;99.90;;;;;;5054262;28;20420;-73
2022/04/02 02:39:31;;;;;;;9.80;1.42;;;8.60;99.90;;;;;;5054430;28;20024;-73
2022/04/02 02:41:57;;;;;;;7.68;1.67;;;8.50;99.90;;;;;;5054565;28;20017;-73
2022/04/02 02:44:22;;;;;;;3.97;1.08;;;8.60;99.90;;;;;;5070616;28;20032;-73
2022/04/02 02:46:48;;;;;;;2.03;1.27;;;8.50;99.90;;;;;;5054994;28;20411;-73
2022/04/02 02:49:14;;;;;;;6.75;2.00;;;8.50;99.90;;;;;;5053775;28;20506;-73
2022/04/02 02:51:40;;;;;;;4.90;1.92;;;8.50;99.90;;;;;;5036154;28;20025;-74
2022/04/02 02:54:06;;;;;;;3.83;1.63;;;8.40;99.90;;;;;;5036766;28;20040;-73
2022/04/02 02:56:32;;;;;;;6.20;2.10;;;8.30;99.90;;;;;;5054466;28;20017;-73
2022/04/02 02:58:57;;;;;;;3.60;1.63;;;8.10;99.90;;;;;;5054460;28;20028;-73
2022/04/02 03:01:23;;;;;;;4.53;1.70;;;7.90;99.90;;;;;;5054458;28;20113;-73
2022/04/02 03:03:49;;;;;;;3.63;2.17;;;7.80;99.90;;;;;;5054387;28;20025;-73
2022/04/02 03:06:15;;;;;;;7.57;1.98;;;7.60;99.90;;;;;;5054545;28;20025;-73
2022/04/02 03:08:41;;;;;;;3.95;1.73;;;7.40;99.90;;;;;;5057906;28;20100;-73
2022/04/02 03:11:06;;;;;;;5.32;2.00;;;7.10;99.90;;;;;;5053916;28;20108;-73
2022/04/02 03:13:32;;;;;;;5.75;1.40;;;7.00;99.90;;;;;;5053647;28;20108;-73
2022/04/02 03:15:58;;;;;;;4.32;1.90;;;6.90;99.90;;;;;;5053733;28;20032;-73
2022/04/02 03:18:23;;;;;;;4.93;2.00;;;6.70;99.90;;;;;;5053721;28;20446;-73
2022/04/02 03:20:49;;;;;;;3.55;1.60;;;6.70;99.90;;;;;;5053383;28;20043;-72
2022/04/02 03:23:15;;;;;;;5.50;2.10;;;6.70;99.90;;;;;;5053714;28;20099;-73
2022/04/02 03:25:41;;;;;;;8.07;1.70;;;6.50;99.90;;;;;;5053862;28;20111;-73
2022/04/02 03:28:07;;;;;;;3.38;1.80;;;6.30;99.90;;;;;;5053946;28;20049;-73
2022/04/02 03:30:32;;;;;;;3.92;2.03;;;6.30;99.90;;;;;;5053656;28;20531;-73
2022/04/02 03:32:58;;;;;;;4.18;2.38;;;6.20;99.90;;;;;;5036127;28;20078;-73
2022/04/02 03:35:25;;;;;;;1.98;1.52;;;6.20;99.90;;;;;;5053989;28;20079;-73
2022/04/02 03:37:52;;;;;;;3.22;1.90;;;6.10;99.90;;;;;;5035969;28;20031;-73
2022/04/02 03:40:21;;;;;;;2.20;1.85;;;6.10;99.90;;;;;;5053771;28;20496;-73
2022/04/02 03:42:48;;;;;;;5.30;2.10;;;6.10;99.90;;;;;;5035728;28;20135;-73
2022/04/02 03:45:16;;;;;;;2.40;1.58;;;6.10;99.90;;;;;;5035683;28;20052;-73
2022/04/02 03:47:42;;;;;;;4.63;1.90;;;6.00;99.90;;;;;;5035166;28;20115;-73
2022/04/02 03:50:08;;;;;;;2.42;1.83;;;6.00;99.90;;;;;;5053460;28;20091;-73
2022/04/02 03:52:36;;;;;;;2.15;1.45;;;6.00;99.90;;;;;;5053366;28;20053;-73
2022/04/02 03:55:05;;;;;;;1.85;1.65;;;6.00;99.90;;;;;;5035646;28;20052;-73
2022/04/02 03:57:31;;;;;;;6.78;1.65;;;6.00;99.90;;;;;;5053414;28;20116;-73
2022/04/02 03:59:57;;;;;;;1.52;1.05;;;6.00;99.90;;;;;;5052995;28;20071;-73
2022/04/02 04:02:23;;;;;;;2.33;1.13;;;6.10;99.90;;;;;;5035111;28;20443;-73
2022/04/02 04:04:49;;;;;;;2.42;1.50;;;6.10;99.90;;;;;;5035234;28;20025;-73
2022/04/02 04:07:15;;;;;;;2.15;1.38;;;6.20;99.90;;;;;;5053334;28;20017;-72
2022/04/02 04:09:41;;;;;;;1.38;1.00;;;6.20;99.90;;;;;;5053195;28;20021;-73
2022/04/02 04:12:08;;;;;;;4.90;1.92;;;6.20;99.90;;;;;;5053124;28;20029;-72
2022/04/02 04:14:34;;;;;;;6.38;2.10;;;6.20;99.90;;;;;;5035289;28;20039;-73
2022/04/02 04:17:00;;;;;;;2.38;1.45;;;6.20;99.90;;;;;;5052863;28;20025;-73
2022/04/02 04:19:26;;;;;;;2.05;1.10;;;6.20;99.90;;;;;;5034905;28;20461;-73
2022/04/02 04:21:53;;;;;;;2.47;1.55;;;6.20;99.90;;;;;;5035109;28;20022;-73
2022/04/02 04:24:19;;;;;;;1.83;1.73;;;6.20;99.90;;;;;;5052827;28;20020;-73
2022/04/02 04:26:45;;;;;;;3.45;1.40;;;6.30;99.90;;;;;;5052948;28;20365;-73
2022/04/02 04:29:11;;;;;;;5.47;1.40;;;6.30;99.90;;;;;;5052863;28;20021;-73
2022/04/02 04:31:38;;;;;;;4.15;1.42;;;6.30;99.90;;;;;;5052165;28;20099;-73
2022/04/02 04:34:04;;;;;;;4.28;1.80;;;6.30;99.90;;;;;;5052851;28;20025;-73
2022/04/02 04:36:30;;;;;;;2.58;1.45;;;6.30;99.90;;;;;;5051484;28;20071;-72
2022/04/02 04:38:57;;;;;;;6.35;2.45;;;6.40;99.90;;;;;;5051678;28;20013;-73
2022/04/02 04:41:23;;;;;;;6.10;1.92;;;6.40;99.90;;;;;;5051499;28;20495;-72
2022/04/02 04:43:49;;;;;;;3.53;1.38;;;6.30;99.90;;;;;;5034456;28;20017;-73
2022/04/02 04:46:17;;;;;;;3.83;1.92;;;6.30;99.90;;;;;;5052544;28;20024;-72
2022/04/02 04:48:44;;;;;;;4.50;1.45;;;6.30;99.90;;;;;;5034553;28;20047;-73
2022/04/02 04:51:10;;;;;;;4.38;1.95;;;6.40;99.90;;;;;;5067893;28;20037;-72
2022/04/02 04:53:36;;;;;;;6.40;2.08;;;6.40;99.90;;;;;;5052436;28;20024;-73
2022/04/02 04:56:02;;;;;;;3.05;1.30;;;6.40;99.90;;;;;;5058794;28;20492;-72
2022/04/02 04:58:28;;;;;;;6.00;1.83;;;6.40;99.90;;;;;;5052568;28;20025;-73
2022/04/02 05:00:56;;;;;;;4.78;1.27;;;6.40;99.90;;;;;;5052082;28;20029;-73
2022/04/02 05:03:23;;;;;;;3.35;1.30;;;6.40;99.90;;;;;;5034465;28;20049;-73
2022/04/02 05:05:48;;;;;;;2.75;1.55;;;6.60;99.90;;;;;;5052738;28;20025;-73
2022/04/02 05:08:14;;;;;;;5.45;1.63;;;6.60;99.90;;;;;;5071188;28;20031;-73
2022/04/02 05:10:43;;;;;;;3.83;1.50;;;6.50;99.90;;;;;;5054283;28;20028;-73
2022/04/02 05:13:12;;;;;;;5.75;1.65;;;6.60;99.90;;;;;;5075391;28;20518;-73
2022/04/02 05:15:40;;;;;;;2.50;1.60;;;6.70;99.90;;;;;;5058580;28;20066;-73
2022/04/02 05:18:06;;;;;;;6.47;1.60;;;6.60;99.90;;;;;;5076474;28;20089;-73
2022/04/02 05:20:32;;;;;;;7.88;1.92;;;6.60;99.90;;;;;;5076246;28;20031;-73
2022/04/02 05:22:58;;;;;;;3.05;1.20;;;6.60;99.90;;;;;;5076482;28;20021;-73
2022/04/02 05:25:24;;;;;;;4.82;1.52;;;6.70;99.90;;;;;;5058171;28;20036;-73
2022/04/02 05:27:49;;;;;;;4.13;1.70;;;6.70;99.90;;;;;;5076312;28;20524;-73
2022/04/02 05:30:16;;;;;;;2.90;1.50;;;6.70;99.90;;;;;;5076025;28;20449;-73
2022/04/02 05:32:41;;;;;;;5.72;1.77;;;6.60;99.90;;;;;;5038286;28;20377;-72
2022/04/02 05:35:08;;;;;;;3.92;1.27;;;6.70;99.90;;;;;;5056110;28;20028;-72
2022/04/02 05:37:33;;;;;;;5.97;1.75;;;6.70;99.90;;;;;;5055980;28;20029;-72
2022/04/02 05:39:59;;;;;;;6.07;1.70;;;6.80;99.90;;;;;;5071430;28;20083;-72
2022/04/02 05:42:26;;;;;;;5.22;1.85;;;6.80;99.90;;;;;;5055880;28;20036;-72
2022/04/02 05:44:53;;;;;;;2.75;1.52;;;6.80;99.90;;;;;;5055770;28;20021;-73
2022/04/02 05:47:20;;;;;;;4.10;1.30;;;6.90;99.90;;;;;;5070520;28;20075;-73
2022/04/02 05:49:47;;;;;;;5.22;1.63;;;6.90;99.90;;;;;;5054967;28;20049;-73
2022/04/02 05:52:13;;;;;;;2.40;1.40;;;7.00;99.90;;;;;;5055487;28;20484;-72
2022/04/02 05:54:39;;;;;;;3.10;1.83;;;7.00;99.90;;;;;;5055709;28;20024;-73
2022/04/02 05:57:05;;;;;;;2.75;1.63;;;7.10;99.90;;;;;;5037758;28;20448;-73
2022/04/02 05:59:31;;;;;;;1.60;1.42;;;7.10;99.90;;;;;;5055639;28;20051;-73
2022/04/02 06:01:56;;;;;;;8.65;1.63;;;7.10;99.90;;;;;;5055600;28;20017;-73
2022/04/02 06:04:23;;;;;;;4.07;1.58;;;7.20;99.90;;;;;;5055461;28;20025;-73
2022/04/02 06:06:49;;;;;;;5.45;2.75;;;7.30;99.90;;;;;;5055495;28;20021;-73
2022/04/02 06:09:15;;;;;;;4.78;1.48;;;7.20;99.90;;;;;;5037503;28;20456;-73
2022/04/02 06:11:40;;;;;;;5.45;1.83;;;7.30;99.90;;;;;;5055307;28;20021;-72
2022/04/02 06:14:06;;;;;;;6.55;1.65;;;7.30;99.90;;;;;;5053918;28;20025;-73
2022/04/02 06:16:32;;;;;;;10.90;2.33;;;7.40;99.90;;;;;;5055438;28;20433;-72
2022/04/02 06:18:57;;;;;;;6.07;1.98;;;7.30;99.90;;;;;;5055355;28;20021;-73
2022/04/02 06:21:23;;;;;;;4.63;1.70;;;7.30;99.90;;;;;;5054843;28;20551;-73
2022/04/02 06:23:49;;;;;;;5.07;1.70;;;7.30;99.90;;;;;;5036127;28;20043;-73
2022/04/02 06:26:14;;;;;;;7.47;2.25;;;7.20;99.90;;;;;;5055262;28;20095;-73
2022/04/02 06:28:42;;;;;;;2.80;1.52;;;7.20;99.90;;;;;;5055200;28;20743;-73
2022/04/02 06:31:08;;;;;;;2.38;1.23;;;7.30;99.90;;;;;;5054699;28;20025;-73
2022/04/02 06:33:34;;;;;;;5.55;1.92;;;7.30;99.90;;;;;;5054982;28;20029;-73
2022/04/02 06:36:00;;;;;;;5.10;1.85;;;7.40;99.90;;;;;;5055051;28;20522;-73
2022/04/02 06:38:27;;;;;;;4.90;2.00;;;7.40;99.90;;;;;;5054884;28;20036;-72
2022/04/02 06:40:53;;;;;;;3.70;1.85;;;7.50;99.90;;;;;;5054544;28;20025;-73
2022/04/02 06:43:19;;;;;;;2.65;1.60;;;7.60;99.90;;;;;;5055149;28;20490;-78
2022/04/02 06:45:45;;;;;;;8.02;2.15;;;7.60;99.90;;;;;;5054994;28;20087;-78
2022/04/02 06:48:13;;;;;;;7.68;2.13;;;7.70;99.90;;;;;;5054903;28;20049;-78
2022/04/02 06:50:40;;;;;;;3.35;2.38;;;7.70;99.90;;;;;;5037098;28;20029;-78
2022/04/02 06:53:06;;;;;;;3.30;1.85;;;7.80;99.90;;;;;;5054754;28;20031;-78
2022/04/02 06:55:32;;;;;;;6.55;1.50;;;7.80;99.90;;;;;;5054744;28;20124;-78
2022/04/02 06:57:58;;;;;;;5.93;1.73;;;7.90;99.90;;;;;;5054776;28;20029;-78
2022/04/02 07:00:24;;;;;;;5.60;1.77;;;8.00;99.90;;;;;;5054554;28;20060;-78
2022/04/02 07:02:50;;;;;;;5.32;1.77;;;8.00;99.90;;;;;;5054633;28;20025;-78
2022/04/02 07:05:18;;;;;;;3.38;1.73;;;8.00;99.90;;;;;;5054634;28;20024;-78
2022/04/02 07:07:45;;;;;;;3.25;1.83;;;8.00;99.90;;;;;;5036763;28;20029;-78
2022/04/02 07:10:11;;;;;;;4.60;1.88;;;8.10;99.90;;;;;;5054452;28;20025;-78
2022/04/02 07:12:37;;;;;;;4.65;2.10;;;8.20;99.90;;;;;;5054346;28;20078;-78
2022/04/02 07:15:04;;;;;;;7.55;2.00;;;8.20;99.90;;;;;;5051354;28;20056;-78
2022/04/02 07:17:30;;;;;;;9.23;2.40;;;8.30;99.90;;;;;;5036553;28;20033;-78
2022/04/02 07:19:58;;;;;;;4.38;1.98;;;8.30;99.90;;;;;;5054424;28;20029;-78
2022/04/02 07:22:25;;;;;;;7.20;2.28;;;8.40;99.90;;;;;;5054085;28;20021;-78
2022/04/02 07:24:54;;;;;;;6.55;2.45;;;8.40;99.90;;;;;;5036450;28;20107;-78
2022/04/02 07:27:26;;;;;;;4.72;2.33;;;8.40;99.90;;;;;;5054240;28;20073;-77
2022/04/02 07:29:53;;;;;;;3.67;2.20;;;8.50;99.90;;;;;;5036361;28;20130;-78
2022/04/02 07:32:19;;;;;;;6.18;2.78;;;8.50;99.90;;;;;;5054087;28;20404;-78
2022/04/02 07:34:45;;;;;;;10.63;3.22;;;8.50;99.90;;;;;;5053674;28;20033;-77
2022/04/02 07:37:45;;;;;;;4.93;3.40;;;8.60;99.90;;;;;;5053871;28;20025;-78
2022/04/02 07:40:26;;;;;;;5.82;3.38;;;8.70;99.90;;;;;;5012839;28;20029;-77
2022/04/02 07:43:34;;;;;;;7.55;3.10;;;8.70;99.90;;;;;;5053644;28;20774;-78
2022/04/02 07:46:06;;;;;;;4.93;2.65;;;8.70;99.90;;;;;;5035839;28;20103;-73
2022/04/02 07:48:37;;;;;;;5.85;2.47;;;8.80;99.90;;;;;;5052374;28;20488;-73
2022/04/02 07:51:11;;;;;;;6.32;2.80;;;8.90;99.90;;;;;;5034581;28;20032;-73
2022/04/02 07:53:44;;;;;;;6.50;2.38;;;8.90;99.90;;;;;;5052440;28;20018;-73
2022/04/02 07:56:14;;;;;;;3.70;2.53;;;8.90;99.90;;;;;;5052058;28;20071;-73
2022/04/02 07:58:46;;;;;;;6.57;2.45;;;8.90;99.90;;;;;;5051910;28;20078;-73
2022/04/02 08:01:16;;;;;;;2.80;2.53;;;8.90;99.90;;;;;;5033894;28;20040;-73
2022/04/02 08:03:44;;;;;;;7.20;2.55;;;9.00;99.90;;;;;;5034085;28;20112;-73
2022/04/02 08:06:11;;;;;;;8.07;2.67;;;9.00;99.90;;;;;;5051768;28;20085;-73
2022/04/02 08:08:37;;;;;;;4.43;1.73;;;9.10;99.90;;;;;;5067204;28;20079;-73
2022/04/02 08:11:02;;;;;;;4.82;1.92;;;9.20;99.90;;;;;;5052929;28;20025;-73
2022/04/02 08:13:29;;;;;;;3.90;1.67;;;9.20;99.90;;;;;;5053142;28;20499;-73
2022/04/02 08:15:57;;;;;;;6.55;2.13;;;9.20;99.90;;;;;;5053085;28;20414;-73
2022/04/02 08:18:26;;;;;;;6.55;1.80;;;9.20;99.90;;;;;;5053147;28;20154;-73
2022/04/02 08:20:54;;;;;;;6.80;2.30;;;9.30;99.90;;;;;;5052738;28;20044;-74
2022/04/02 08:23:20;;;;;;;2.25;1.80;;;9.30;99.90;;;;;;5053016;28;20017;-73
2022/04/02 08:26:19;;;;;;;3.75;1.95;;;9.40;99.90;;;;;;5053064;28;20472;-73
2022/04/02 08:29:07;;;;;;;5.00;1.85;;;9.50;99.90;;;;;;5052996;28;20071;-73
2022/04/02 08:31:53;;;;;;;3.92;1.58;;;9.50;99.90;;;;;;5034683;28;20040;-73
2022/04/02 08:35:09;;;;;;;2.95;1.65;;;9.40;99.90;;;;;;5051879;28;20021;-73
2022/04/02 08:37:44;;;;;;;4.53;1.90;;;9.50;99.90;;;;;;5007991;28;20095;-73
2022/04/02 08:40:40;;;;;;;4.57;2.03;;;9.50;99.90;;;;;;5034329;28;20033;-73
2022/04/02 08:43:48;;;;;;;10.95;3.20;;;9.50;99.90;;;;;;5052804;28;20024;-73
2022/04/02 08:46:32;;;;;;;4.93;1.90;;;9.50;99.90;;;;;;5051944;28;20021;-73
2022/04/02 08:49:14;;;;;;;7.40;1.95;;;9.50;99.90;;;;;;5067832;28;20140;-73
2022/04/02 08:51:48;;;;;;;2.67;1.70;;;9.60;99.90;;;;;;5052564;28;20046;-73
2022/04/02 08:54:26;;;;;;;6.15;2.63;;;9.70;99.90;;;;;;5052702;28;20044;-73
2022/04/02 08:57:06;;;;;;;4.53;1.77;;;9.70;99.90;;;;;;5052578;28;20099;-73
2022/04/02 08:59:38;;;;;;;6.30;2.80;;;9.80;99.90;;;;;;5034154;28;20684;-73
2022/04/02 09:02:16;;;;;;;;;;;9.80;99.90;;;;;;5050137;28;20014;-73
2022/04/02 09:05:17;;;;;;;5.30;2.63;;;9.80;99.90;;;;;;5031612;28;19996;-73
2022/04/02 09:08:17;;;;;;;6.85;2.25;;;9.80;99.90;;;;;;5009517;28;20041;-73
2022/04/02 09:11:01;;;;;;;5.78;2.47;;;9.90;99.90;;;;;;5014611;28;20033;-73
2022/04/02 09:13:29;;;;;;;5.03;2.58;;;9.90;99.90;;;;;;5014433;28;20144;-73
2022/04/02 09:16:10;;;;;;;3.70;2.38;;;10.00;99.90;;;;;;5031128;28;20405;-73
2022/04/02 09:18:39;;;;;;;10.27;2.85;;;10.00;99.90;;;;;;5014526;28;20022;-73
2022/04/02 09:21:16;;;;;;;8.40;2.42;;;10.10;99.90;;;;;;5032070;28;20025;-73
2022/04/02 09:24:00;;;;;;;8.05;2.30;;;10.10;99.90;;;;;;5032421;28;20461;-73
2022/04/02 09:27:03;;;;;;;3.85;2.35;;;10.10;99.90;;;;;;5032336;28;20022;-73
2022/04/02 09:29:36;;;;;;;7.10;1.92;;;10.20;99.90;;;;;;5032054;28;20018;-73
2022/04/02 09:32:21;;;;;;;5.00;2.20;;;10.20;99.90;;;;;;5046861;28;20052;-73
2022/04/02 09:35:04;;;;;;;3.05;1.95;;;10.20;99.90;;;;;;5034287;28;20029;-74
2022/04/02 09:37:33;;;;;;;5.40;2.72;;;10.30;99.90;;;;;;5052052;28;20029;-73
2022/04/02 09:40:10;;;;;;;5.65;2.40;;;10.40;99.90;;;;;;5033747;28;20033;-73
2022/04/02 09:42:44;;;;;;;7.22;2.00;;;10.50;99.90;;;;;;5052111;28;20028;-73
2022/04/02 09:45:18;;;;;;;6.30;1.92;;;10.50;99.90;;;;;;5051755;28;20025;-73
2022/04/02 09:47:52;;;;;;;8.73;2.45;;;10.50;99.90;;;;;;5051672;28;20025;-73
2022/04/02 09:50:26;;;;;;;5.65;2.45;;;10.50;99.90;;;;;;5051657;28;20068;-73
2022/04/02 09:53:09;;;;;;;4.85;2.38;;;10.70;99.90;;;;;;5034010;28;20048;-73
2022/04/02 09:55:37;;;;;;;4.40;2.60;;;10.70;99.90;;;;;;5052104;28;20028;-73
2022/04/02 09:58:09;;;;;;;3.58;2.20;;;10.70;99.90;;;;;;5035160;28;20607;-73
2022/04/02 10:00:48;;;;;;;4.40;2.28;;;10.80;99.90;;;;;;5037301;28;20033;-73
2022/04/02 10:03:30;;;;;;;5.50;2.40;;;10.70;99.90;;;;;;5037685;28;20021;-73
2022/04/02 10:06:20;;;;;;;5.55;2.25;;;10.70;99.90;;;;;;5055699;28;20021;-73
2022/04/02 10:09:07;;;;;;;5.35;2.53;;;10.80;99.90;;;;;;5055652;28;20055;-73
2022/04/02 10:11:39;;;;;;;2.60;1.80;;;10.80;99.90;;;;;;5055429;28;20035;-73
2022/04/02 10:14:06;;;;;;;5.43;2.67;;;10.70;99.90;;;;;;5055533;28;20569;-73
2022/04/02 10:16:32;;;;;;;5.68;2.40;;;10.70;99.90;;;;;;5037272;28;20032;-73
2022/04/02 10:19:00;;;;;;;9.05;2.25;;;10.80;99.90;;;;;;5037365;28;20614;-73
2022/04/02 10:21:29;;;;;;;4.10;2.70;;;10.90;99.90;;;;;;5055138;28;20064;-73
2022/04/02 10:24:09;;;;;;;4.80;2.45;;;11.00;99.90;;;;;;5055124;28;20021;-73
2022/04/02 10:26:39;;;;;;;5.18;2.28;;;11.00;99.90;;;;;;5070289;28;20020;-73
2022/04/02 10:29:13;;;;;;;2.70;2.35;;;10.90;99.90;;;;;;5055177;28;20024;-73
2022/04/02 10:32:01;;;;;;;8.10;3.05;;;10.80;99.90;;;;;;5054925;28;20423;-73
2022/04/02 10:34:44;;;;;;;5.75;2.53;;;10.90;99.90;;;;;;5036903;28;20040;-73
2022/04/02 10:37:16;;;;;;;7.90;3.17;;;11.00;99.90;;;;;;5055008;28;20029;-73
2022/04/02 10:40:04;;;;;;;2.05;1.77;;;11.00;99.90;;;;;;5036941;28;20025;-72
2022/04/02 10:42:39;;;;;;;7.30;2.22;;;11.10;99.90;;;;;;5036330;28;20036;-72
2022/04/02 10:45:05;;;;;;;3.58;1.73;;;11.30;99.90;;;;;;5036910;28;20497;-73
2022/04/02 10:47:34;;;;;;;3.38;1.70;;;11.40;99.90;;;;;;5054654;28;20104;-73
2022/04/02 10:50:05;;;;;;;5.53;1.67;;;11.50;99.90;;;;;;5036218;28;20052;-73
2022/04/02 10:52:31;;;;;;;2.83;1.87;;;11.50;99.90;;;;;;5036805;28;20116;-73
2022/04/02 10:54:57;;;;;;;3.50;1.80;;;11.50;99.90;;;;;;5052488;28;20025;-73
2022/04/02 10:57:27;;;;;;;5.18;2.22;;;11.60;99.90;;;;;;5038253;28;20021;-73
2022/04/02 11:00:05;;;;;;;2.40;1.30;;;11.60;98.90;;;;;;5054116;28;20029;-73
2022/04/02 11:02:58;;;;;;;2.35;1.40;;;11.70;99.60;;;;;;5053983;28;20017;-73
2022/04/02 11:05:25;;;;;;;2.42;1.13;;;11.60;98.00;;;;;;5052680;28;20024;-73
2022/04/02 11:08:01;;;;;;;2.85;1.00;;;11.70;97.50;;;;;;5054005;28;20092;-73
2022/04/02 11:10:27;;;;;;;3.28;1.48;;;11.70;98.50;;;;;;5053341;28;20385;-73
2022/04/02 11:13:00;;;;;;;3.25;1.30;;;11.70;97.00;;;;;;5053956;28;20033;-73
2022/04/02 11:15:31;;;;;;;2.47;1.15;;;11.60;96.70;;;;;;5053940;28;20025;-72
2022/04/02 11:17:59;;;;;;;4.20;1.45;;;11.50;95.50;;;;;;5035906;28;20029;-73
2022/04/02 11:20:26;;;;;;;1.00;0.93;;;11.50;96.30;;;;;;5035803;28;20173;-73
2022/04/02 11:22:52;;;;;;;1.35;1.08;;;11.50;96.10;;;;;;5035867;28;20496;-73
2022/04/02 11:25:28;;;;;;;1.05;0.95;;;11.60;97.30;;;;;;5035709;28;20022;-73
2022/04/02 11:28:18;;;;;;;3.10;1.63;;;11.50;96.10;;;;;;5053582;28;20009;-72
2022/04/02 11:30:45;;;;;;;1.40;1.30;;;11.50;97.10;;;;;;5042564;28;20049;-72
2022/04/02 11:33:22;;;;;;;1.65;1.55;;;11.70;97.60;;;;;;5053321;28;20508;-72
2022/04/02 11:35:48;;;;;;;3.83;1.65;;;11.80;97.20;;;;;;5035540;28;20028;-73
2022/04/02 11:38:20;;;;;;;1.65;1.40;;;11.80;95.10;;;;;;5052562;28;20033;-73
2022/04/02 11:40:55;;;;;;;2.72;1.40;;;11.90;97.00;;;;;;5052480;28;20028;-73
2022/04/02 11:43:34;;;;;;;3.58;1.40;;;12.00;96.20;;;;;;5033264;28;20021;-73
2022/04/02 11:46:03;;;;;;;3.83;1.50;;;12.10;95.70;;;;;;5050974;28;20346;-73
2022/04/02 11:48:32;;;;;;;3.55;1.35;;;12.10;94.50;;;;;;5053095;28;20124;-72
2022/04/02 11:51:14;;;;;;;3.42;1.33;;;12.10;93.40;;;;;;5050383;28;20056;-73
2022/04/02 11:53:41;;;;;;;4.05;1.90;;;12.30;95.40;;;;;;5051263;28;20024;-72
2022/04/02 11:56:32;;;;;;;5.47;2.63;;;12.50;96.10;;;;;;5034469;28;20492;-72
2022/04/02 11:59:06;;;;;;;2.40;1.38;;;12.60;95.10;;;;;;5050815;28;20025;-72
2022/04/02 12:01:42;;;;;;;3.78;1.10;;;12.40;93.60;;;;;;5051878;28;20026;-73
2022/04/02 12:04:14;;;;;;;1.77;1.20;;;12.30;93.70;;;;;;5052867;28;20100;-72
2022/04/02 12:06:43;;;;;;;6.00;1.57;;;12.30;93.20;;;;;;5050534;28;20024;-72
2022/04/02 12:09:15;;;;;;;1.60;1.42;;;12.40;93.50;;;;;;5052424;28;20372;-72
2022/04/02 12:12:02;;;;;;;2.15;1.73;;;12.40;94.80;;;;;;5046951;28;20068;-73
2022/04/02 12:14:34;;;;;;;1.67;1.35;;;12.50;93.80;;;;;;5051433;28;20419;-73
2022/04/02 12:17:11;;;;;;;1.55;1.40;;;12.50;94.30;;;;;;5032866;28;20070;-72
2022/04/02 12:19:37;;;;;;;2.60;1.13;;;12.40;90.50;;;;;;5047608;28;20433;-73
2022/04/02 12:22:15;;;;;;;3.38;1.25;;;12.10;88.60;;;;;;5052591;28;20092;-72
2022/04/02 12:24:47;;;;;;;3.45;1.35;;;12.10;91.00;;;;;;5032537;28;20074;-73
2022/04/02 12:27:20;;;;;;;2.05;1.60;;;12.20;92.80;;;;;;5034262;28;20017;-73
2022/04/02 12:29:48;;;;;;;2.05;1.30;;;12.20;92.10;;;;;;5052540;28;20067;-73
2022/04/02 12:32:36;;;;;;;1.50;1.40;;;12.20;92.10;;;;;;5052495;28;20023;-72
2022/04/02 12:35:24;;;;;;;4.95;1.80;;;12.10;90.50;;;;;;5049989;28;20021;-73
2022/04/02 12:37:56;;;;;;;3.65;1.67;;;12.30;92.60;;;;;;5050247;28;20040;-73
2022/04/02 12:40:28;;;;;;;2.20;1.98;;;12.40;92.00;;;;;;5050672;28;20013;-73
2022/04/02 12:43:09;;;;;;;3.80;2.53;;;12.50;93.10;;;;;;5050958;28;20036;-72
2022/04/02 12:45:37;;;;;;;3.97;2.03;;;12.40;90.40;;;;;;5048437;28;20115;-72
2022/04/02 12:48:07;;;;;;;3.63;1.85;;;12.20;89.90;;;;;;5032826;28;20508;-78
2022/04/02 12:50:38;;;;;;;3.30;1.60;;;12.20;91.50;;;;;;5050354;28;20025;-78
2022/04/02 12:53:05;;;;;;;3.88;2.25;;;12.10;92.20;;;;;;5052132;28;20025;-78
2022/04/02 12:55:33;;;;;;;5.03;1.65;;;11.90;91.90;;;;;;5052416;28;20024;-78
2022/04/02 12:58:08;;;;;;;1.58;1.27;;;11.80;90.90;;;;;;5033710;28;20032;-78
2022/04/02 13:00:41;;;;;;;3.38;1.35;;;11.60;90.20;;;;;;5050469;28;20043;-78
2022/04/02 13:03:07;;;;;;;1.05;0.93;;;11.50;91.10;;;;;;5050810;28;20655;-78
2022/04/02 13:05:44;;;;;;;3.90;1.30;;;11.50;92.20;;;;;;5051490;28;20021;-78
2022/04/02 13:08:26;;;;;;;1.75;1.08;;;11.50;93.20;;;;;;5051503;28;20017;-78
2022/04/02 13:10:55;;;;;;;;;;;11.50;92.20;;;;;;5052202;28;20037;-78
2022/04/02 13:13:42;;;;;;;2.35;1.60;;;11.50;92.40;;;;;;5051849;28;19904;-78
2022/04/02 13:16:14;;;;;;;3.17;2.00;;;11.40;93.70;;;;;;5049279;28;20040;-73
2022/04/02 13:21:38;;;;;;;9.55;2.00;;;11.50;94.30;;;;;;5049844;28;20064;-73